createdAt,value
2023-05-05T00:00:43.488Z,14.80
2023-05-05T00:04:54.360Z,14.90
2023-05-05T00:09:03.769Z,14.80
2023-05-05T00:13:13.308Z,14.80
2023-05-05T00:17:23.502Z,14.80
2023-05-05T00:21:34.565Z,14.70
2023-05-05T00:25:44.331Z,14.70
2023-05-05T00:29:54.813Z,14.70
2023-05-05T00:34:04.245Z,14.70
2023-05-05T00:38:15.185Z,14.70
2023-05-05T00:42:24.978Z,14.70
2023-05-05T00:46:36.438Z,14.60
2023-05-05T00:50:47.238Z,14.60
2023-05-05T00:54:59.236Z,14.60
2023-05-05T00:59:08.878Z,14.60
2023-05-05T01:03:18.219Z,14.60
2023-05-05T01:07:36.530Z,14.70
2023-05-05T01:11:58.213Z,14.70
2023-05-05T01:16:15.472Z,14.80
2023-05-05T01:20:32.171Z,14.80
2023-05-05T01:25:16.417Z,14.70
2023-05-05T01:29:55.278Z,14.60
2023-05-05T01:34:10.414Z,14.70
2023-05-05T01:38:24.307Z,14.70
2023-05-05T01:42:36.038Z,14.70
2023-05-05T01:46:45.530Z,14.70
2023-05-05T01:50:56.736Z,14.70
2023-05-05T01:55:09.551Z,14.60
2023-05-05T01:59:20.399Z,14.60
2023-05-05T02:03:32.673Z,14.60
2023-05-05T02:07:45.210Z,14.60
2023-05-05T02:11:55.070Z,14.60
2023-05-05T02:16:08.810Z,14.60
2023-05-05T02:20:24.539Z,14.70
2023-05-05T02:24:35.998Z,14.70
2023-05-05T02:28:51.963Z,14.60
2023-05-05T02:33:08.097Z,14.60
2023-05-05T02:37:23.237Z,14.60
2023-05-05T02:41:38.586Z,14.60
2023-05-05T02:45:47.958Z,14.60
2023-05-05T02:49:57.318Z,14.60
2023-05-05T02:54:07.083Z,14.70
2023-05-05T02:58:26.400Z,14.60
2023-05-05T03:02:46.134Z,14.50
2023-05-05T03:07:00.516Z,14.50
2023-05-05T03:11:19.755Z,14.50
2023-05-05T03:15:33.093Z,14.50
2023-05-05T03:19:44.736Z,14.50
2023-05-05T03:23:54.098Z,14.50
2023-05-05T03:28:03.634Z,14.50
2023-05-05T03:32:14.729Z,14.40
2023-05-05T03:36:24.113Z,14.40
2023-05-05T03:40:43.742Z,14.40
2023-05-05T03:44:56.173Z,14.40
2023-05-05T03:49:07.573Z,14.30
2023-05-05T03:53:17.029Z,14.30
2023-05-05T03:57:27.636Z,14.30
2023-05-05T04:01:36.961Z,14.30
2023-05-05T04:05:48.155Z,14.40
2023-05-05T04:09:57.595Z,14.30
2023-05-05T04:14:07.053Z,14.40
2023-05-05T04:18:16.366Z,14.40
2023-05-05T04:22:27.399Z,14.50
2023-05-05T04:26:36.941Z,14.50
2023-05-05T04:30:46.356Z,14.50
2023-05-05T04:34:56.201Z,14.60
2023-05-05T04:39:07.848Z,14.60
2023-05-05T04:43:17.245Z,14.70
2023-05-05T04:47:26.956Z,14.70
2023-05-05T04:51:37.594Z,14.70
2023-05-05T04:55:51.799Z,14.60
2023-05-05T05:00:05.099Z,14.60
2023-05-05T05:04:18.872Z,14.60
2023-05-05T05:08:28.354Z,14.60
2023-05-05T05:12:40.563Z,14.50
2023-05-05T05:16:53.557Z,14.60
2023-05-05T05:21:05.122Z,14.60
2023-05-05T05:25:14.532Z,14.60
2023-05-05T05:29:49.862Z,14.50
2023-05-05T05:34:02.437Z,14.60
2023-05-05T05:38:15.831Z,14.60
2023-05-05T05:46:51.654Z,14.70
2023-05-05T05:51:06.155Z,14.80
2023-05-05T05:55:17.623Z,14.80
2023-05-05T05:59:30.456Z,14.90
2023-05-05T06:03:42.751Z,14.90
2023-05-05T06:07:55.569Z,14.90
2023-05-05T06:12:08.992Z,14.90
2023-05-05T06:16:36.623Z,15.00
2023-05-05T06:20:52.949Z,15.20
2023-05-05T06:25:05.691Z,15.20
2023-05-05T06:29:18.712Z,15.10
2023-05-05T06:33:31.549Z,15.20
2023-05-05T06:37:53.250Z,15.20
2023-05-05T06:46:38.763Z,15.30
2023-05-05T06:55:29.852Z,15.40
2023-05-05T06:59:39.293Z,15.40
2023-05-05T07:03:48.775Z,15.60
2023-05-05T07:07:59.334Z,15.80
2023-05-05T07:12:10.327Z,15.90
2023-05-05T07:16:19.513Z,15.90
2023-05-05T07:20:28.892Z,16.00
2023-05-05T07:24:38.381Z,15.90
2023-05-05T07:28:52.429Z,16.00
2023-05-05T07:33:01.769Z,16.10
2023-05-05T07:37:12.215Z,16.10
2023-05-05T07:41:22.403Z,16.20
2023-05-05T07:45:33.753Z,16.30
2023-05-05T07:49:42.935Z,16.50
2023-05-05T07:53:52.134Z,16.80
2023-05-05T07:58:01.623Z,16.90
2023-05-05T08:02:13.738Z,16.90
2023-05-05T08:06:25.760Z,16.60
2023-05-05T08:10:35.532Z,16.50
2023-05-05T08:14:45.117Z,16.60
2023-05-05T08:18:56.546Z,16.80
2023-05-05T08:23:06.351Z,17.10
2023-05-05T08:27:17.320Z,17.40
2023-05-05T08:31:26.994Z,17.50
2023-05-05T08:35:38.123Z,17.60
2023-05-05T08:39:47.576Z,17.90
2023-05-05T08:43:57.040Z,18.10
2023-05-05T08:48:08.165Z,18.30
2023-05-05T08:52:24.292Z,18.40
2023-05-05T08:56:38.861Z,18.40
2023-05-05T09:00:48.505Z,18.60
2023-05-05T09:04:58.150Z,18.80
2023-05-05T09:09:10.256Z,19.10
2023-05-05T09:13:20.234Z,19.30
2023-05-05T09:17:29.787Z,19.20
2023-05-05T09:21:49.914Z,19.10
2023-05-05T09:26:10.469Z,19.20
2023-05-05T09:30:25.155Z,19.50
2023-05-05T09:34:38.985Z,19.70
2023-05-05T10:11:27.111Z,20.00
2023-05-05T11:29:21.449Z,20.70
2023-05-05T11:38:44.990Z,20.50
2023-05-05T16:52:48.927Z,18.70
